sensor_id;sensor_type;location;lat;lon;timestamp;pressure;altitude;pressure_sealevel;temperature;humidity
44992;BME280;56865;51.618;7.406;2023-04-28T00:00:27;100652.69;;;24.72;45.26
44992;BME280;56865;51.618;7.406;2023-04-28T00:02:57;100653.47;;;24.74;47.67
44992;BME280;56865;51.618;7.406;2023-04-28T00:06:03;100648.97;;;24.79;47.21
44992;BME280;56865;51.618;7.406;2023-04-28T00:08:37;100644.88;;;24.72;48.17
44992;BME280;56865;51.618;7.406;2023-04-28T00:11:11;100639.59;;;24.73;45.95
44992;BME280;56865;51.618;7.406;2023-04-28T00:23:17;100626.81;;;24.65;45.05
44992;BME280;56865;51.618;7.406;2023-04-28T00:28:59;100613.06;;;24.59;48.51
44992;BME280;56865;51.618;7.406;2023-04-28T00:34:39;100596.75;;;24.54;46.60
44992;BME280;56865;51.618;7.406;2023-04-28T01:02:02;100572.78;;;24.71;50.27
44992;BME280;56865;51.618;7.406;2023-04-28T01:04:37;100572.13;;;24.62;47.02
44992;BME280;56865;51.618;7.406;2023-04-28T01:15:24;100573.63;;;24.71;46.77
44992;BME280;56865;51.618;7.406;2023-04-28T01:20:42;100583.75;;;24.52;47.99
44992;BME280;56865;51.618;7.406;2023-04-28T02:58:26;100519.06;;;24.11;59.86
44992;BME280;56865;51.618;7.406;2023-04-28T03:42:51;100474.50;;;23.64;68.01
44992;BME280;56865;51.618;7.406;2023-04-28T03:45:21;100475.78;;;23.79;68.32
44992;BME280;56865;51.618;7.406;2023-04-28T03:47:51;100471.19;;;23.59;68.00
44992;BME280;56865;51.618;7.406;2023-04-28T03:50:20;100468.34;;;23.66;66.65
44992;BME280;56865;51.618;7.406;2023-04-28T03:52:52;100462.75;;;23.79;67.33
44992;BME280;56865;51.618;7.406;2023-04-28T03:55:21;100462.31;;;23.64;67.34
44992;BME280;56865;51.618;7.406;2023-04-28T03:57:54;100449.22;;;23.67;68.47
44992;BME280;56865;51.618;7.406;2023-04-28T04:00:23;100442.03;;;23.46;67.92
44992;BME280;56865;51.618;7.406;2023-04-28T04:02:53;100437.91;;;23.68;68.77
44992;BME280;56865;51.618;7.406;2023-04-28T04:05:23;100438.63;;;23.74;68.54
44992;BME280;56865;51.618;7.406;2023-04-28T04:07:53;100435.50;;;23.62;69.53
44992;BME280;56865;51.618;7.406;2023-04-28T04:10:22;100436.91;;;23.73;70.39
44992;BME280;56865;51.618;7.406;2023-04-28T04:12:54;100434.72;;;23.30;70.22
44992;BME280;56865;51.618;7.406;2023-04-28T04:15:24;100430.84;;;23.72;70.60
44992;BME280;56865;51.618;7.406;2023-04-28T04:17:54;100419.91;;;23.62;70.48
44992;BME280;56865;51.618;7.406;2023-04-28T04:20:24;100418.41;;;23.82;71.67
44992;BME280;56865;51.618;7.406;2023-04-28T04:22:53;100419.03;;;23.62;71.06
44992;BME280;56865;51.618;7.406;2023-04-28T04:25:27;100413.53;;;23.43;72.09
44992;BME280;56865;51.618;7.406;2023-04-28T04:28:00;100408.72;;;23.59;71.17
44992;BME280;56865;51.618;7.406;2023-04-28T04:30:30;100405.97;;;23.63;72.13
44992;BME280;56865;51.618;7.406;2023-04-28T04:33:01;100406.78;;;23.65;70.83
44992;BME280;56865;51.618;7.406;2023-04-28T04:35:31;100407.28;;;23.77;72.35
44992;BME280;56865;51.618;7.406;2023-04-28T04:38:01;100410.66;;;23.80;72.24
44992;BME280;56865;51.618;7.406;2023-04-28T04:40:31;100407.19;;;23.80;72.11
44992;BME280;56865;51.618;7.406;2023-04-28T04:43:05;100401.31;;;24.01;72.08
44992;BME280;56865;51.618;7.406;2023-04-28T04:45:37;100405.72;;;23.99;72.10
44992;BME280;56865;51.618;7.406;2023-04-28T04:48:07;100391.81;;;24.00;72.56
44992;BME280;56865;51.618;7.406;2023-04-28T04:50:39;100397.28;;;23.93;73.94
44992;BME280;56865;51.618;7.406;2023-04-28T05:06:37;100403.47;;;24.15;74.02
44992;BME280;56865;51.618;7.406;2023-04-28T05:09:07;100401.50;;;24.22;73.31
44992;BME280;56865;51.618;7.406;2023-04-28T05:11:39;100405.94;;;24.20;73.96
44992;BME280;56865;51.618;7.406;2023-04-28T05:14:09;100406.91;;;24.16;73.46
44992;BME280;56865;51.618;7.406;2023-04-28T05:19:26;100411.13;;;24.20;73.94
44992;BME280;56865;51.618;7.406;2023-04-28T06:01:09;100377.00;;;24.53;76.02
44992;BME280;56865;51.618;7.406;2023-04-28T06:03:37;100366.44;;;24.56;76.11
44992;BME280;56865;51.618;7.406;2023-04-28T06:06:09;100378.34;;;24.63;75.87
44992;BME280;56865;51.618;7.406;2023-04-28T06:08:41;100364.53;;;24.61;75.51
44992;BME280;56865;51.618;7.406;2023-04-28T06:11:12;100366.03;;;24.69;76.87
44992;BME280;56865;51.618;7.406;2023-04-28T06:13:46;100357.63;;;24.60;76.31
44992;BME280;56865;51.618;7.406;2023-04-28T06:16:22;100359.09;;;24.69;76.78
44992;BME280;56865;51.618;7.406;2023-04-28T06:18:54;100360.38;;;24.81;76.72
44992;BME280;56865;51.618;7.406;2023-04-28T06:21:33;100359.47;;;24.82;76.67
44992;BME280;56865;51.618;7.406;2023-04-28T06:24:19;100361.88;;;24.88;77.60
44992;BME280;56865;51.618;7.406;2023-04-28T06:27:18;100362.75;;;24.87;76.59
44992;BME280;56865;51.618;7.406;2023-04-28T06:29:55;100366.72;;;24.97;77.13
44992;BME280;56865;51.618;7.406;2023-04-28T06:32:47;100358.59;;;25.05;76.83
44992;BME280;56865;51.618;7.406;2023-04-28T06:35:19;100350.72;;;25.07;76.57
44992;BME280;56865;51.618;7.406;2023-04-28T06:38:00;100351.75;;;25.03;76.92
44992;BME280;56865;51.618;7.406;2023-04-28T06:40:31;100352.47;;;25.06;76.56
44992;BME280;56865;51.618;7.406;2023-04-28T06:43:05;100347.94;;;25.11;76.74
44992;BME280;56865;51.618;7.406;2023-04-28T06:45:36;100345.50;;;25.07;76.82
44992;BME280;56865;51.618;7.406;2023-04-28T06:48:09;100341.50;;;25.20;76.91
44992;BME280;56865;51.618;7.406;2023-04-28T06:50:39;100334.66;;;25.18;77.19
44992;BME280;56865;51.618;7.406;2023-04-28T06:53:09;100334.16;;;25.54;77.17
44992;BME280;56865;51.618;7.406;2023-04-28T06:55:42;100329.63;;;25.35;78.25
44992;BME280;56865;51.618;7.406;2023-04-28T06:58:13;100326.72;;;25.43;77.39
44992;BME280;56865;51.618;7.406;2023-04-28T07:00:43;100323.56;;;25.35;78.32
44992;BME280;56865;51.618;7.406;2023-04-28T07:03:15;100326.38;;;25.52;78.00
44992;BME280;56865;51.618;7.406;2023-04-28T07:05:47;100321.28;;;25.49;77.32
44992;BME280;56865;51.618;7.406;2023-04-28T07:08:19;100329.00;;;25.52;76.24
44992;BME280;56865;51.618;7.406;2023-04-28T07:10:49;100330.69;;;25.29;77.61
44992;BME280;56865;51.618;7.406;2023-04-28T07:13:23;100328.03;;;25.55;77.04
44992;BME280;56865;51.618;7.406;2023-04-28T07:15:53;100333.31;;;25.74;76.98
44992;BME280;56865;51.618;7.406;2023-04-28T07:18:30;100335.94;;;25.74;76.10
44992;BME280;56865;51.618;7.406;2023-04-28T07:21:05;100327.19;;;25.75;76.75
44992;BME280;56865;51.618;7.406;2023-04-28T07:23:35;100325.50;;;25.74;76.64
44992;BME280;56865;51.618;7.406;2023-04-28T07:26:13;100331.72;;;25.70;77.34
44992;BME280;56865;51.618;7.406;2023-04-28T07:28:43;100337.50;;;25.78;76.38
44992;BME280;56865;51.618;7.406;2023-04-28T07:31:13;100334.19;;;25.95;77.13
44992;BME280;56865;51.618;7.406;2023-04-28T07:33:48;100334.13;;;25.96;77.34
44992;BME280;56865;51.618;7.406;2023-04-28T07:36:30;100333.34;;;25.94;77.64
44992;BME280;56865;51.618;7.406;2023-04-28T07:39:00;100329.28;;;25.87;78.22
44992;BME280;56865;51.618;7.406;2023-04-28T07:41:35;100325.41;;;25.96;78.58
44992;BME280;56865;51.618;7.406;2023-04-28T07:44:06;100333.06;;;26.01;78.37
44992;BME280;56865;51.618;7.406;2023-04-28T07:46:41;100325.38;;;25.98;78.23
44992;BME280;56865;51.618;7.406;2023-04-28T07:49:14;100322.78;;;25.98;78.68
44992;BME280;56865;51.618;7.406;2023-04-28T07:51:45;100324.88;;;26.10;78.31
44992;BME280;56865;51.618;7.406;2023-04-28T07:54:20;100326.94;;;26.22;79.02
44992;BME280;56865;51.618;7.406;2023-04-28T07:56:54;100334.22;;;26.16;78.85
44992;BME280;56865;51.618;7.406;2023-04-28T07:59:32;100333.88;;;26.44;78.90
44992;BME280;56865;51.618;7.406;2023-04-28T08:02:04;100339.03;;;26.46;78.54
44992;BME280;56865;51.618;7.406;2023-04-28T08:04:37;100332.66;;;26.51;79.23
44992;BME280;56865;51.618;7.406;2023-04-28T08:07:07;100333.53;;;26.52;78.00
44992;BME280;56865;51.618;7.406;2023-04-28T08:09:38;100332.78;;;26.29;78.61
44992;BME280;56865;51.618;7.406;2023-04-28T08:12:12;100341.81;;;26.41;78.43
44992;BME280;56865;51.618;7.406;2023-04-28T08:14:43;100333.59;;;26.30;78.98
44992;BME280;56865;51.618;7.406;2023-04-28T08:17:14;100339.09;;;26.44;78.79
44992;BME280;56865;51.618;7.406;2023-04-28T08:19:47;100331.31;;;26.61;78.63
44992;BME280;56865;51.618;7.406;2023-04-28T08:25:13;100326.41;;;26.93;78.34
44992;BME280;56865;51.618;7.406;2023-04-28T08:28:15;100328.19;;;26.93;77.95
44992;BME280;56865;51.618;7.406;2023-04-28T08:31:01;100326.56;;;27.09;78.04
44992;BME280;56865;51.618;7.406;2023-04-28T08:33:46;100327.41;;;27.10;77.71
44992;BME280;56865;51.618;7.406;2023-04-28T08:42:30;100307.19;;;27.31;77.65
44992;BME280;56865;51.618;7.406;2023-04-28T08:45:00;100306.66;;;27.24;76.95
44992;BME280;56865;51.618;7.406;2023-04-28T08:47:33;100312.66;;;27.63;78.19
44992;BME280;56865;51.618;7.406;2023-04-28T08:50:04;100306.19;;;27.70;78.44
44992;BME280;56865;51.618;7.406;2023-04-28T08:52:34;100298.31;;;28.05;78.92
44992;BME280;56865;51.618;7.406;2023-04-28T08:55:05;100312.72;;;28.14;78.33
44992;BME280;56865;51.618;7.406;2023-04-28T08:57:40;100313.34;;;28.19;78.88
44992;BME280;56865;51.618;7.406;2023-04-28T09:00:11;100310.53;;;28.22;76.58
44992;BME280;56865;51.618;7.406;2023-04-28T09:02:41;100310.25;;;27.94;77.72
44992;BME280;56865;51.618;7.406;2023-04-28T09:05:14;100305.00;;;28.11;77.59
44992;BME280;56865;51.618;7.406;2023-04-28T09:07:44;100305.03;;;27.76;78.71
44992;BME280;56865;51.618;7.406;2023-04-28T09:10:15;100299.53;;;28.16;78.72
44992;BME280;56865;51.618;7.406;2023-04-28T09:12:50;100294.00;;;28.54;79.05
44992;BME280;56865;51.618;7.406;2023-04-28T09:15:30;100287.09;;;28.53;76.84
44992;BME280;56865;51.618;7.406;2023-04-28T09:18:00;100286.44;;;28.65;77.30
44992;BME280;56865;51.618;7.406;2023-04-28T09:20:31;100288.13;;;29.14;77.29
44992;BME280;56865;51.618;7.406;2023-04-28T09:23:13;100279.34;;;28.67;76.12
44992;BME280;56865;51.618;7.406;2023-04-28T09:25:59;100282.63;;;29.03;76.93
44992;BME280;56865;51.618;7.406;2023-04-28T09:28:34;100271.28;;;29.18;76.49
44992;BME280;56865;51.618;7.406;2023-04-28T09:31:03;100276.44;;;29.20;76.26
44992;BME280;56865;51.618;7.406;2023-04-28T09:33:33;100275.22;;;29.26;74.23
44992;BME280;56865;51.618;7.406;2023-04-28T09:36:03;100285.59;;;29.29;76.22
44992;BME280;56865;51.618;7.406;2023-04-28T09:38:41;100286.34;;;29.61;76.51
44992;BME280;56865;51.618;7.406;2023-04-28T09:41:11;100286.63;;;29.57;74.00
44992;BME280;56865;51.618;7.406;2023-04-28T09:43:44;100288.53;;;29.69;74.51
44992;BME280;56865;51.618;7.406;2023-04-28T09:46:15;100283.94;;;29.73;76.55
44992;BME280;56865;51.618;7.406;2023-04-28T09:48:59;100281.09;;;29.31;76.90
44992;BME280;56865;51.618;7.406;2023-04-28T09:51:29;100277.09;;;29.40;74.74
44992;BME280;56865;51.618;7.406;2023-04-28T09:54:00;100272.75;;;29.69;75.32
44992;BME280;56865;51.618;7.406;2023-04-28T09:56:30;100269.72;;;30.06;76.26
44992;BME280;56865;51.618;7.406;2023-04-28T09:59:09;100285.78;;;30.15;75.35
44992;BME280;56865;51.618;7.406;2023-04-28T10:01:39;100276.03;;;30.03;74.71
44992;BME280;56865;51.618;7.406;2023-04-28T10:04:10;100277.53;;;29.93;76.09
44992;BME280;56865;51.618;7.406;2023-04-28T10:06:40;100274.94;;;29.77;74.01
44992;BME280;56865;51.618;7.406;2023-04-28T10:09:11;100273.22;;;29.61;73.52
44992;BME280;56865;51.618;7.406;2023-04-28T10:11:43;100273.03;;;29.34;75.52
44992;BME280;56865;51.618;7.406;2023-04-28T10:14:17;100272.28;;;29.32;75.74
44992;BME280;56865;51.618;7.406;2023-04-28T10:16:47;100271.66;;;29.27;75.57
44992;BME280;56865;51.618;7.406;2023-04-28T10:19:17;100276.50;;;28.88;74.79
44992;BME280;56865;51.618;7.406;2023-04-28T10:21:51;100278.03;;;29.23;76.79
44992;BME280;56865;51.618;7.406;2023-04-28T10:24:25;100264.69;;;29.11;75.77
44992;BME280;56865;51.618;7.406;2023-04-28T10:27:07;100275.56;;;29.35;75.83
44992;BME280;56865;51.618;7.406;2023-04-28T10:29:40;100276.97;;;29.72;74.44
44992;BME280;56865;51.618;7.406;2023-04-28T10:32:16;100266.16;;;29.62;75.91
44992;BME280;56865;51.618;7.406;2023-04-28T10:34:46;100267.56;;;29.53;76.96
44992;BME280;56865;51.618;7.406;2023-04-28T10:37:17;100268.22;;;29.57;75.62
44992;BME280;56865;51.618;7.406;2023-04-28T10:48:05;100262.22;;;29.99;74.93
44992;BME280;56865;51.618;7.406;2023-04-28T10:50:35;100262.50;;;30.09;73.21
44992;BME280;56865;51.618;7.406;2023-04-28T10:53:05;100254.97;;;30.32;74.88
44992;BME280;56865;51.618;7.406;2023-04-28T10:55:35;100254.78;;;30.35;74.79
44992;BME280;56865;51.618;7.406;2023-04-28T11:00:50;100251.00;;;29.81;73.31
44992;BME280;56865;51.618;7.406;2023-04-28T11:03:42;100250.47;;;30.20;73.49
44992;BME280;56865;51.618;7.406;2023-04-28T11:06:20;100242.03;;;30.14;73.93
44992;BME280;56865;51.618;7.406;2023-04-28T11:08:52;100252.53;;;30.14;72.30
44992;BME280;56865;51.618;7.406;2023-04-28T11:11:23;100239.75;;;30.37;73.59
44992;BME280;56865;51.618;7.406;2023-04-28T11:13:54;100243.13;;;30.39;74.35
44992;BME280;56865;51.618;7.406;2023-04-28T11:16:24;100247.88;;;29.75;74.34
44992;BME280;56865;51.618;7.406;2023-04-28T11:18:57;100257.66;;;29.73;73.54
44992;BME280;56865;51.618;7.406;2023-04-28T11:21:30;100254.41;;;30.12;74.13
44992;BME280;56865;51.618;7.406;2023-04-28T11:24:06;100248.34;;;29.67;74.07
44992;BME280;56865;51.618;7.406;2023-04-28T11:26:36;100252.94;;;29.94;74.14
44992;BME280;56865;51.618;7.406;2023-04-28T11:29:07;100254.78;;;29.77;74.84
44992;BME280;56865;51.618;7.406;2023-04-28T11:31:37;100248.34;;;29.53;75.96
44992;BME280;56865;51.618;7.406;2023-04-28T11:34:11;100253.50;;;29.54;75.28
44992;BME280;56865;51.618;7.406;2023-04-28T11:36:41;100255.31;;;28.91;76.90
44992;BME280;56865;51.618;7.406;2023-04-28T11:39:12;100247.19;;;29.42;77.69
44992;BME280;56865;51.618;7.406;2023-04-28T11:41:43;100254.66;;;29.79;78.25
44992;BME280;56865;51.618;7.406;2023-04-28T11:44:13;100259.34;;;29.74;78.14
44992;BME280;56865;51.618;7.406;2023-04-28T11:46:43;100251.28;;;29.62;78.31
44992;BME280;56865;51.618;7.406;2023-04-28T11:49:19;100264.72;;;29.42;78.24
44992;BME280;56865;51.618;7.406;2023-04-28T11:51:50;100257.19;;;29.80;78.19
44992;BME280;56865;51.618;7.406;2023-04-28T11:54:21;100256.16;;;29.69;78.25
44992;BME280;56865;51.618;7.406;2023-04-28T11:56:51;100256.72;;;29.29;78.72
44992;BME280;56865;51.618;7.406;2023-04-28T11:59:24;100261.09;;;29.59;78.51
44992;BME280;56865;51.618;7.406;2023-04-28T12:01:55;100258.97;;;29.65;80.20
44992;BME280;56865;51.618;7.406;2023-04-28T12:04:28;100259.00;;;29.49;80.70
44992;BME280;56865;51.618;7.406;2023-04-28T12:07:01;100271.53;;;29.60;80.26
44992;BME280;56865;51.618;7.406;2023-04-28T12:09:33;100266.47;;;29.11;81.55
44992;BME280;56865;51.618;7.406;2023-04-28T12:12:03;100263.22;;;29.38;80.66
44992;BME280;56865;51.618;7.406;2023-04-28T12:17:22;100259.41;;;29.27;82.51
44992;BME280;56865;51.618;7.406;2023-04-28T12:19:55;100264.44;;;29.00;83.08
44992;BME280;56865;51.618;7.406;2023-04-28T12:22:25;100260.00;;;29.32;83.25
44992;BME280;56865;51.618;7.406;2023-04-28T12:25:04;100273.13;;;29.32;83.39
44992;BME280;56865;51.618;7.406;2023-04-28T12:27:34;100260.03;;;29.00;83.63
44992;BME280;56865;51.618;7.406;2023-04-28T12:32:50;100264.91;;;29.23;84.50
44992;BME280;56865;51.618;7.406;2023-04-28T12:35:24;100263.91;;;29.09;84.10
44992;BME280;56865;51.618;7.406;2023-04-28T12:37:54;100263.06;;;29.25;84.51
44992;BME280;56865;51.618;7.406;2023-04-28T12:40:24;100264.44;;;29.00;84.71
44992;BME280;56865;51.618;7.406;2023-04-28T12:42:54;100271.09;;;29.22;84.30
44992;BME280;56865;51.618;7.406;2023-04-28T12:45:23;100271.41;;;29.47;84.14
44992;BME280;56865;51.618;7.406;2023-04-28T12:47:56;100269.31;;;29.22;83.49
44992;BME280;56865;51.618;7.406;2023-04-28T12:50:28;100275.41;;;29.23;83.79
44992;BME280;56865;51.618;7.406;2023-04-28T12:52:58;100281.88;;;29.78;83.47
44992;BME280;56865;51.618;7.406;2023-04-28T12:55:28;100278.25;;;29.95;82.57
44992;BME280;56865;51.618;7.406;2023-04-28T12:57:58;100275.22;;;29.87;82.82
44992;BME280;56865;51.618;7.406;2023-04-28T13:00:27;100274.69;;;29.96;83.18
44992;BME280;56865;51.618;7.406;2023-04-28T13:02:57;100270.91;;;29.71;83.29
44992;BME280;56865;51.618;7.406;2023-04-28T13:05:30;100267.78;;;29.34;84.56
44992;BME280;56865;51.618;7.406;2023-04-28T13:08:00;100267.06;;;29.16;85.13
44992;BME280;56865;51.618;7.406;2023-04-28T13:10:30;100268.72;;;28.70;85.99
44992;BME280;56865;51.618;7.406;2023-04-28T13:13:00;100270.84;;;29.26;84.24
44992;BME280;56865;51.618;7.406;2023-04-28T13:15:31;100276.78;;;29.30;85.02
44992;BME280;56865;51.618;7.406;2023-04-28T13:18:04;100270.94;;;29.55;84.21
44992;BME280;56865;51.618;7.406;2023-04-28T13:20:36;100271.78;;;29.56;84.89
44992;BME280;56865;51.618;7.406;2023-04-28T13:23:06;100262.63;;;29.32;84.96
44992;BME280;56865;51.618;7.406;2023-04-28T13:25:35;100256.38;;;29.49;85.53
44992;BME280;56865;51.618;7.406;2023-04-28T13:28:05;100256.03;;;29.56;84.74
44992;BME280;56865;51.618;7.406;2023-04-28T13:30:35;100252.59;;;29.84;84.18
44992;BME280;56865;51.618;7.406;2023-04-28T13:33:05;100243.97;;;30.40;85.26
44992;BME280;56865;51.618;7.406;2023-04-28T13:35:37;100224.91;;;30.36;84.34
44992;BME280;56865;51.618;7.406;2023-04-28T13:38:07;100225.28;;;30.44;84.52
44992;BME280;56865;51.618;7.406;2023-04-28T13:40:37;100211.88;;;30.76;82.28
44992;BME280;56865;51.618;7.406;2023-04-28T13:43:07;100209.13;;;30.78;83.16
44992;BME280;56865;51.618;7.406;2023-04-28T13:45:37;100205.38;;;31.09;81.72
44992;BME280;56865;51.618;7.406;2023-04-28T13:48:07;100212.84;;;31.16;81.61
44992;BME280;56865;51.618;7.406;2023-04-28T13:50:40;100217.28;;;31.28;81.87
44992;BME280;56865;51.618;7.406;2023-04-28T13:53:10;100214.06;;;30.97;82.56
44992;BME280;56865;51.618;7.406;2023-04-28T13:55:42;100212.34;;;30.96;81.33
44992;BME280;56865;51.618;7.406;2023-04-28T13:58:14;100204.69;;;31.06;81.67
44992;BME280;56865;51.618;7.406;2023-04-28T14:00:44;100199.06;;;30.85;82.94
44992;BME280;56865;51.618;7.406;2023-04-28T14:03:13;100205.69;;;31.18;82.00
44992;BME280;56865;51.618;7.406;2023-04-28T14:05:46;100200.44;;;31.18;80.77
44992;BME280;56865;51.618;7.406;2023-04-28T14:08:17;100203.94;;;31.31;80.50
44992;BME280;56865;51.618;7.406;2023-04-28T14:10:47;100197.50;;;31.48;80.62
44992;BME280;56865;51.618;7.406;2023-04-28T14:13:17;100194.47;;;31.67;79.03
44992;BME280;56865;51.618;7.406;2023-04-28T14:15:47;100197.34;;;31.64;80.02
44992;BME280;56865;51.618;7.406;2023-04-28T14:18:24;100193.88;;;31.10;78.78
44992;BME280;56865;51.618;7.406;2023-04-28T14:20:56;100192.41;;;31.06;79.21
44992;BME280;56865;51.618;7.406;2023-04-28T14:23:28;100190.34;;;30.97;79.08
44992;BME280;56865;51.618;7.406;2023-04-28T14:25:57;100193.16;;;31.08;78.80
44992;BME280;56865;51.618;7.406;2023-04-28T14:28:27;100192.47;;;31.05;79.11
44992;BME280;56865;51.618;7.406;2023-04-28T14:31:00;100182.63;;;30.81;79.49
44992;BME280;56865;51.618;7.406;2023-04-28T14:33:31;100187.59;;;31.26;78.55
44992;BME280;56865;51.618;7.406;2023-04-28T14:36:04;100186.34;;;31.04;79.73
44992;BME280;56865;51.618;7.406;2023-04-28T14:38:33;100185.25;;;31.08;78.63
44992;BME280;56865;51.618;7.406;2023-04-28T14:41:05;100177.25;;;31.10;78.48
44992;BME280;56865;51.618;7.406;2023-04-28T14:43:35;100184.38;;;31.08;79.08
44992;BME280;56865;51.618;7.406;2023-04-28T14:46:05;100183.44;;;31.09;78.67
44992;BME280;56865;51.618;7.406;2023-04-28T14:48:34;100178.38;;;30.66;78.10
44992;BME280;56865;51.618;7.406;2023-04-28T14:51:07;100180.38;;;31.02;79.78
44992;BME280;56865;51.618;7.406;2023-04-28T14:53:37;100182.34;;;30.99;78.97
44992;BME280;56865;51.618;7.406;2023-04-28T14:56:07;100180.63;;;31.25;77.95
44992;BME280;56865;51.618;7.406;2023-04-28T14:58:42;100176.84;;;31.16;78.25
44992;BME280;56865;51.618;7.406;2023-04-28T15:01:12;100174.81;;;31.07;77.90
44992;BME280;56865;51.618;7.406;2023-04-28T15:03:43;100176.03;;;31.01;78.48
44992;BME280;56865;51.618;7.406;2023-04-28T15:06:15;100180.28;;;30.76;78.99
44992;BME280;56865;51.618;7.406;2023-04-28T15:08:45;100173.97;;;30.79;78.34
44992;BME280;56865;51.618;7.406;2023-04-28T15:11:15;100173.91;;;31.21;79.14
44992;BME280;56865;51.618;7.406;2023-04-28T15:13:44;100177.91;;;31.26;76.74
44992;BME280;56865;51.618;7.406;2023-04-28T15:16:14;100178.59;;;31.16;77.68
44992;BME280;56865;51.618;7.406;2023-04-28T15:18:44;100163.78;;;31.40;77.64
44992;BME280;56865;51.618;7.406;2023-04-28T15:21:17;100172.31;;;31.57;77.43
44992;BME280;56865;51.618;7.406;2023-04-28T15:23:47;100175.88;;;31.56;77.52
44992;BME280;56865;51.618;7.406;2023-04-28T15:26:16;100177.88;;;30.73;78.83
44992;BME280;56865;51.618;7.406;2023-04-28T15:28:46;100179.06;;;30.95;77.78
44992;BME280;56865;51.618;7.406;2023-04-28T15:31:16;100184.22;;;31.24;78.03
44992;BME280;56865;51.618;7.406;2023-04-28T15:33:46;100184.75;;;31.02;77.43
44992;BME280;56865;51.618;7.406;2023-04-28T15:36:18;100179.59;;;31.15;77.60
44992;BME280;56865;51.618;7.406;2023-04-28T15:38:48;100178.84;;;30.85;78.29
44992;BME280;56865;51.618;7.406;2023-04-28T15:41:18;100184.88;;;31.00;77.13
44992;BME280;56865;51.618;7.406;2023-04-28T15:43:48;100181.56;;;30.84;79.55
44992;BME280;56865;51.618;7.406;2023-04-28T15:46:18;100189.47;;;30.84;78.98
44992;BME280;56865;51.618;7.406;2023-04-28T15:48:48;100193.16;;;31.08;78.67
44992;BME280;56865;51.618;7.406;2023-04-28T15:51:20;100197.75;;;30.77;79.02
44992;BME280;56865;51.618;7.406;2023-04-28T15:53:50;100195.09;;;30.92;79.34
44992;BME280;56865;51.618;7.406;2023-04-28T15:56:21;100205.72;;;30.63;79.79
44992;BME280;56865;51.618;7.406;2023-04-28T15:58:52;100206.00;;;30.44;79.25
44992;BME280;56865;51.618;7.406;2023-04-28T16:01:22;100212.78;;;30.34;79.47
44992;BME280;56865;51.618;7.406;2023-04-28T16:03:52;100216.94;;;30.23;80.40
44992;BME280;56865;51.618;7.406;2023-04-28T16:06:24;100224.97;;;29.93;80.49
44992;BME280;56865;51.618;7.406;2023-04-28T16:08:55;100238.81;;;30.24;80.26
44992;BME280;56865;51.618;7.406;2023-04-28T16:11:25;100241.84;;;30.03;80.84
44992;BME280;56865;51.618;7.406;2023-04-28T16:13:55;100234.91;;;30.17;79.98
44992;BME280;56865;51.618;7.406;2023-04-28T16:16:26;100239.28;;;30.16;79.71
44992;BME280;56865;51.618;7.406;2023-04-28T16:18:56;100250.84;;;30.28;80.44
44992;BME280;56865;51.618;7.406;2023-04-28T16:21:29;100252.81;;;30.10;79.85
44992;BME280;56865;51.618;7.406;2023-04-28T16:23:59;100256.22;;;29.97;79.57
44992;BME280;56865;51.618;7.406;2023-04-28T16:26:30;100252.81;;;30.10;78.93
44992;BME280;56865;51.618;7.406;2023-04-28T16:28:59;100252.91;;;30.08;79.15
44992;BME280;56865;51.618;7.406;2023-04-28T16:31:29;100253.63;;;29.81;77.98
44992;BME280;56865;51.618;7.406;2023-04-28T16:33:59;100262.00;;;29.43;78.11
44992;BME280;56865;51.618;7.406;2023-04-28T16:36:32;100253.72;;;29.35;77.03
44992;BME280;56865;51.618;7.406;2023-04-28T16:39:02;100263.09;;;29.70;77.90
44992;BME280;56865;51.618;7.406;2023-04-28T16:41:31;100261.94;;;30.04;77.65
44992;BME280;56865;51.618;7.406;2023-04-28T16:44:01;100255.91;;;29.88;78.04
44992;BME280;56865;51.618;7.406;2023-04-28T16:46:31;100260.91;;;29.62;78.54
44992;BME280;56865;51.618;7.406;2023-04-28T16:49:01;100260.03;;;29.47;77.43
44992;BME280;56865;51.618;7.406;2023-04-28T16:51:34;100262.03;;;29.58;78.89
44992;BME280;56865;51.618;7.406;2023-04-28T16:54:04;100274.47;;;29.40;77.95
44992;BME280;56865;51.618;7.406;2023-04-28T16:56:33;100271.53;;;29.75;79.12
44992;BME280;56865;51.618;7.406;2023-04-28T16:59:05;100264.41;;;29.32;78.62
44992;BME280;56865;51.618;7.406;2023-04-28T17:01:34;100271.72;;;29.11;78.46
44992;BME280;56865;51.618;7.406;2023-04-28T17:04:04;100270.75;;;29.28;78.68
44992;BME280;56865;51.618;7.406;2023-04-28T17:06:36;100270.19;;;29.07;78.03
44992;BME280;56865;51.618;7.406;2023-04-28T17:09:06;100267.53;;;29.23;78.25
44992;BME280;56865;51.618;7.406;2023-04-28T17:11:36;100268.13;;;29.58;77.54
44992;BME280;56865;51.618;7.406;2023-04-28T17:14:06;100277.59;;;29.46;77.43
44992;BME280;56865;51.618;7.406;2023-04-28T17:16:36;100283.28;;;29.39;78.21
44992;BME280;56865;51.618;7.406;2023-04-28T17:19:06;100279.28;;;29.47;77.98
44992;BME280;56865;51.618;7.406;2023-04-28T17:21:39;100278.72;;;29.42;78.44
44992;BME280;56865;51.618;7.406;2023-04-28T17:24:08;100271.19;;;29.36;76.81
44992;BME280;56865;51.618;7.406;2023-04-28T17:26:38;100274.53;;;29.38;77.70
44992;BME280;56865;51.618;7.406;2023-04-28T17:29:08;100279.06;;;29.36;77.00
44992;BME280;56865;51.618;7.406;2023-04-28T17:31:38;100272.22;;;29.33;77.93
44992;BME280;56865;51.618;7.406;2023-04-28T17:34:07;100275.75;;;29.16;77.53
44992;BME280;56865;51.618;7.406;2023-04-28T17:36:40;100288.78;;;29.34;77.98
44992;BME280;56865;51.618;7.406;2023-04-28T17:39:09;100292.44;;;29.31;77.51
44992;BME280;56865;51.618;7.406;2023-04-28T17:41:41;100295.84;;;29.64;77.95
44992;BME280;56865;51.618;7.406;2023-04-28T17:44:12;100305.41;;;29.18;79.11